sensor_id;sensor_type;location;lat;lon;timestamp;P1;durP1;ratioP1;P2;durP2;ratioP2
12050;SDS011;6086;43.546;26.474;2022-08-04T00:00:25;2.40;;;2.20;;
12050;SDS011;6086;43.546;26.474;2022-08-04T00:02:57;2.53;;;2.33;;
12050;SDS011;6086;43.546;26.474;2022-08-04T00:05:38;2.40;;;2.20;;
12050;SDS011;6086;43.546;26.474;2022-08-04T00:08:19;5.33;;;2.80;;
12050;SDS011;6086;43.546;26.474;2022-08-04T00:10:57;3.70;;;2.40;;
12050;SDS011;6086;43.546;26.474;2022-08-04T00:13:26;2.63;;;2.40;;
12050;SDS011;6086;43.546;26.474;2022-08-04T00:15:56;2.90;;;2.70;;
12050;SDS011;6086;43.546;26.474;2022-08-04T00:18:26;2.43;;;2.23;;
12050;SDS011;6086;43.546;26.474;2022-08-04T00:20:56;2.53;;;2.43;;
12050;SDS011;6086;43.546;26.474;2022-08-04T00:23:26;2.53;;;2.33;;
12050;SDS011;6086;43.546;26.474;2022-08-04T00:25:56;3.10;;;2.33;;
12050;SDS011;6086;43.546;26.474;2022-08-04T00:28:23;2.70;;;2.50;;
12050;SDS011;6086;43.546;26.474;2022-08-04T00:30:50;3.47;;;2.40;;
12050;SDS011;6086;43.546;26.474;2022-08-04T00:33:18;4.50;;;2.30;;
12050;SDS011;6086;43.546;26.474;2022-08-04T00:35:46;3.60;;;2.17;;
12050;SDS011;6086;43.546;26.474;2022-08-04T00:38:13;4.10;;;2.93;;
12050;SDS011;6086;43.546;26.474;2022-08-04T00:40:46;2.50;;;2.30;;
12050;SDS011;6086;43.546;26.474;2022-08-04T00:43:20;2.63;;;2.43;;
12050;SDS011;6086;43.546;26.474;2022-08-04T00:45:59;2.83;;;2.47;;
12050;SDS011;6086;43.546;26.474;2022-08-04T00:49:02;2.90;;;2.60;;
12050;SDS011;6086;43.546;26.474;2022-08-04T00:51:57;2.53;;;2.33;;
12050;SDS011;6086;43.546;26.474;2022-08-04T00:54:36;3.83;;;2.80;;
12050;SDS011;6086;43.546;26.474;2022-08-04T00:57:18;7.47;;;4.10;;
12050;SDS011;6086;43.546;26.474;2022-08-04T01:00:01;4.03;;;3.60;;
12050;SDS011;6086;43.546;26.474;2022-08-04T01:02:34;6.27;;;3.30;;
12050;SDS011;6086;43.546;26.474;2022-08-04T01:05:03;3.50;;;3.13;;
12050;SDS011;6086;43.546;26.474;2022-08-04T01:10:37;3.33;;;3.00;;
12050;SDS011;6086;43.546;26.474;2022-08-04T01:13:21;3.47;;;3.00;;
12050;SDS011;6086;43.546;26.474;2022-08-04T01:16:01;4.13;;;3.10;;
12050;SDS011;6086;43.546;26.474;2022-08-04T01:18:35;5.33;;;3.47;;
12050;SDS011;6086;43.546;26.474;2022-08-04T01:21:19;4.53;;;3.20;;
12050;SDS011;6086;43.546;26.474;2022-08-04T01:24:10;4.53;;;2.67;;
12050;SDS011;6086;43.546;26.474;2022-08-04T01:26:52;3.43;;;3.00;;
12050;SDS011;6086;43.546;26.474;2022-08-04T01:29:25;4.60;;;2.73;;
12050;SDS011;6086;43.546;26.474;2022-08-04T01:31:56;4.50;;;3.20;;
12050;SDS011;6086;43.546;26.474;2022-08-04T01:34:28;8.60;;;3.37;;
12050;SDS011;6086;43.546;26.474;2022-08-04T01:37:02;6.30;;;3.33;;
12050;SDS011;6086;43.546;26.474;2022-08-04T01:39:34;6.03;;;3.53;;
12050;SDS011;6086;43.546;26.474;2022-08-04T01:42:07;6.73;;;2.90;;
12050;SDS011;6086;43.546;26.474;2022-08-04T01:44:37;4.03;;;2.90;;
12050;SDS011;6086;43.546;26.474;2022-08-04T01:47:06;8.47;;;3.20;;
12050;SDS011;6086;43.546;26.474;2022-08-04T01:49:36;3.07;;;2.77;;
12050;SDS011;6086;43.546;26.474;2022-08-04T01:52:04;2.80;;;2.60;;
12050;SDS011;6086;43.546;26.474;2022-08-04T01:54:36;3.17;;;2.83;;
12050;SDS011;6086;43.546;26.474;2022-08-04T01:57:06;3.33;;;2.90;;
12050;SDS011;6086;43.546;26.474;2022-08-04T01:59:37;3.27;;;2.97;;
12050;SDS011;6086;43.546;26.474;2022-08-04T02:02:04;3.03;;;2.83;;
12050;SDS011;6086;43.546;26.474;2022-08-04T02:04:31;7.57;;;3.27;;
12050;SDS011;6086;43.546;26.474;2022-08-04T02:07:12;6.03;;;3.13;;
12050;SDS011;6086;43.546;26.474;2022-08-04T02:09:52;3.57;;;2.60;;
12050;SDS011;6086;43.546;26.474;2022-08-04T02:12:32;2.87;;;2.67;;
12050;SDS011;6086;43.546;26.474;2022-08-04T02:15:15;3.77;;;2.70;;
12050;SDS011;6086;43.546;26.474;2022-08-04T02:17:54;2.80;;;2.60;;
12050;SDS011;6086;43.546;26.474;2022-08-04T02:20:28;4.13;;;3.10;;
12050;SDS011;6086;43.546;26.474;2022-08-04T02:22:59;3.83;;;2.80;;
12050;SDS011;6086;43.546;26.474;2022-08-04T02:25:28;4.93;;;3.10;;
12050;SDS011;6086;43.546;26.474;2022-08-04T02:28:02;4.27;;;3.33;;
12050;SDS011;6086;43.546;26.474;2022-08-04T02:30:46;7.53;;;3.50;;
12050;SDS011;6086;43.546;26.474;2022-08-04T02:33:22;7.20;;;4.47;;
12050;SDS011;6086;43.546;26.474;2022-08-04T02:36:00;5.03;;;3.73;;
12050;SDS011;6086;43.546;26.474;2022-08-04T02:38:32;4.47;;;3.60;;
12050;SDS011;6086;43.546;26.474;2022-08-04T02:41:08;3.70;;;3.40;;
12050;SDS011;6086;43.546;26.474;2022-08-04T02:43:36;6.50;;;4.03;;
12050;SDS011;6086;43.546;26.474;2022-08-04T02:46:08;6.70;;;3.50;;
12050;SDS011;6086;43.546;26.474;2022-08-04T02:48:36;4.23;;;3.33;;
12050;SDS011;6086;43.546;26.474;2022-08-04T02:51:05;4.53;;;3.33;;
12050;SDS011;6086;43.546;26.474;2022-08-04T02:53:32;5.03;;;3.40;;
12050;SDS011;6086;43.546;26.474;2022-08-04T02:56:03;3.93;;;3.30;;
12050;SDS011;6086;43.546;26.474;2022-08-04T02:58:33;4.43;;;3.30;;
12050;SDS011;6086;43.546;26.474;2022-08-04T03:01:01;3.47;;;3.17;;
12050;SDS011;6086;43.546;26.474;2022-08-04T03:03:33;4.33;;;3.73;;
12050;SDS011;6086;43.546;26.474;2022-08-04T03:15:32;5.10;;;3.17;;
12050;SDS011;6086;43.546;26.474;2022-08-04T03:18:27;3.40;;;3.10;;
12050;SDS011;6086;43.546;26.474;2022-08-04T03:21:45;3.30;;;3.00;;
12050;SDS011;6086;43.546;26.474;2022-08-04T03:24:52;3.70;;;3.37;;
12050;SDS011;6086;43.546;26.474;2022-08-04T03:30:57;7.23;;;3.37;;
12050;SDS011;6086;43.546;26.474;2022-08-04T03:33:41;5.57;;;3.20;;
12050;SDS011;6086;43.546;26.474;2022-08-04T03:36:33;6.13;;;3.43;;
12050;SDS011;6086;43.546;26.474;2022-08-04T03:39:24;3.80;;;3.47;;
12050;SDS011;6086;43.546;26.474;2022-08-04T03:42:13;5.43;;;3.43;;
12050;SDS011;6086;43.546;26.474;2022-08-04T03:45:10;3.30;;;3.00;;
12050;SDS011;6086;43.546;26.474;2022-08-04T03:48:07;3.50;;;3.20;;
12050;SDS011;6086;43.546;26.474;2022-08-04T03:50:59;3.13;;;2.83;;
12050;SDS011;6086;43.546;26.474;2022-08-04T03:53:56;3.30;;;2.63;;
12050;SDS011;6086;43.546;26.474;2022-08-04T04:02:36;3.40;;;3.10;;
12050;SDS011;6086;43.546;26.474;2022-08-04T04:05:45;2.97;;;2.73;;
12050;SDS011;6086;43.546;26.474;2022-08-04T04:08:37;3.20;;;2.90;;
12050;SDS011;6086;43.546;26.474;2022-08-04T04:17:29;4.43;;;3.40;;
12050;SDS011;6086;43.546;26.474;2022-08-04T04:20:24;3.97;;;3.07;;
12050;SDS011;6086;43.546;26.474;2022-08-04T04:23:08;10.13;;;3.50;;
12050;SDS011;6086;43.546;26.474;2022-08-04T04:25:49;4.40;;;3.00;;
12050;SDS011;6086;43.546;26.474;2022-08-04T04:28:31;5.57;;;3.37;;
12050;SDS011;6086;43.546;26.474;2022-08-04T04:31:36;4.43;;;3.30;;
12050;SDS011;6086;43.546;26.474;2022-08-04T04:34:16;8.27;;;3.97;;
12050;SDS011;6086;43.546;26.474;2022-08-04T04:37:02;6.17;;;3.20;;
12050;SDS011;6086;43.546;26.474;2022-08-04T04:39:47;7.27;;;3.23;;
12050;SDS011;6086;43.546;26.474;2022-08-04T04:42:41;3.90;;;3.50;;
12050;SDS011;6086;43.546;26.474;2022-08-04T04:45:35;4.70;;;3.40;;
12050;SDS011;6086;43.546;26.474;2022-08-04T04:48:11;9.63;;;5.60;;
12050;SDS011;6086;43.546;26.474;2022-08-04T04:50:52;5.97;;;3.30;;
12050;SDS011;6086;43.546;26.474;2022-08-04T04:53:32;3.30;;;3.00;;
12050;SDS011;6086;43.546;26.474;2022-08-04T04:56:07;4.07;;;3.40;;
12050;SDS011;6086;43.546;26.474;2022-08-04T04:58:40;4.47;;;2.97;;
12050;SDS011;6086;43.546;26.474;2022-08-04T05:01:18;3.50;;;3.20;;
12050;SDS011;6086;43.546;26.474;2022-08-04T05:04:14;5.00;;;2.83;;
12050;SDS011;6086;43.546;26.474;2022-08-04T05:07:04;3.20;;;2.90;;
12050;SDS011;6086;43.546;26.474;2022-08-04T05:09:48;2.60;;;2.40;;
12050;SDS011;6086;43.546;26.474;2022-08-04T05:12:33;3.93;;;2.80;;
12050;SDS011;6086;43.546;26.474;2022-08-04T05:15:09;6.17;;;2.70;;
12050;SDS011;6086;43.546;26.474;2022-08-04T05:17:39;5.83;;;2.50;;
12050;SDS011;6086;43.546;26.474;2022-08-04T05:20:09;2.50;;;2.30;;
12050;SDS011;6086;43.546;26.474;2022-08-04T05:22:39;4.20;;;3.20;;
12050;SDS011;6086;43.546;26.474;2022-08-04T05:25:13;4.43;;;3.20;;
12050;SDS011;6086;43.546;26.474;2022-08-04T05:27:45;4.40;;;2.93;;
12050;SDS011;6086;43.546;26.474;2022-08-04T05:30:16;6.53;;;2.80;;
12050;SDS011;6086;43.546;26.474;2022-08-04T05:32:47;3.00;;;2.63;;
12050;SDS011;6086;43.546;26.474;2022-08-04T05:35:21;2.80;;;2.60;;
12050;SDS011;6086;43.546;26.474;2022-08-04T05:37:55;3.90;;;2.80;;
12050;SDS011;6086;43.546;26.474;2022-08-04T05:40:25;3.70;;;2.70;;
12050;SDS011;6086;43.546;26.474;2022-08-04T05:42:52;7.97;;;3.07;;
12050;SDS011;6086;43.546;26.474;2022-08-04T05:45:21;3.00;;;2.70;;
12050;SDS011;6086;43.546;26.474;2022-08-04T05:47:50;5.60;;;2.60;;
12050;SDS011;6086;43.546;26.474;2022-08-04T05:50:20;9.23;;;3.67;;
12050;SDS011;6086;43.546;26.474;2022-08-04T05:52:48;5.93;;;2.70;;
12050;SDS011;6086;43.546;26.474;2022-08-04T05:55:17;3.90;;;2.50;;
12050;SDS011;6086;43.546;26.474;2022-08-04T05:57:46;3.23;;;2.90;;
12050;SDS011;6086;43.546;26.474;2022-08-04T06:00:15;5.17;;;2.97;;
12050;SDS011;6086;43.546;26.474;2022-08-04T06:02:43;2.50;;;2.40;;
12050;SDS011;6086;43.546;26.474;2022-08-04T06:05:13;2.40;;;2.20;;
12050;SDS011;6086;43.546;26.474;2022-08-04T06:07:43;4.60;;;2.43;;
12050;SDS011;6086;43.546;26.474;2022-08-04T06:10:10;2.80;;;2.00;;
12050;SDS011;6086;43.546;26.474;2022-08-04T06:12:39;2.50;;;2.30;;
12050;SDS011;6086;43.546;26.474;2022-08-04T06:15:10;2.50;;;2.30;;
12050;SDS011;6086;43.546;26.474;2022-08-04T06:17:41;2.83;;;1.90;;
12050;SDS011;6086;43.546;26.474;2022-08-04T06:20:13;2.83;;;1.90;;
12050;SDS011;6086;43.546;26.474;2022-08-04T06:22:44;2.03;;;1.93;;
12050;SDS011;6086;43.546;26.474;2022-08-04T06:25:18;2.03;;;1.70;;
12050;SDS011;6086;43.546;26.474;2022-08-04T06:27:49;5.27;;;2.20;;
12050;SDS011;6086;43.546;26.474;2022-08-04T06:30:17;3.60;;;2.00;;
12050;SDS011;6086;43.546;26.474;2022-08-04T06:32:45;2.37;;;2.03;;
12050;SDS011;6086;43.546;26.474;2022-08-04T06:35:20;4.27;;;2.00;;
12050;SDS011;6086;43.546;26.474;2022-08-04T06:37:50;1.93;;;1.83;;
12050;SDS011;6086;43.546;26.474;2022-08-04T06:40:18;3.87;;;2.40;;
12050;SDS011;6086;43.546;26.474;2022-08-04T06:42:47;2.20;;;2.10;;
12050;SDS011;6086;43.546;26.474;2022-08-04T06:45:15;2.57;;;1.93;;
12050;SDS011;6086;43.546;26.474;2022-08-04T06:47:45;2.30;;;2.10;;
12050;SDS011;6086;43.546;26.474;2022-08-04T06:50:13;2.40;;;2.20;;
12050;SDS011;6086;43.546;26.474;2022-08-04T06:52:42;2.87;;;2.40;;
12050;SDS011;6086;43.546;26.474;2022-08-04T06:55:11;2.60;;;2.40;;
12050;SDS011;6086;43.546;26.474;2022-08-04T06:57:39;2.83;;;2.20;;
12050;SDS011;6086;43.546;26.474;2022-08-04T07:00:08;2.87;;;2.57;;
12050;SDS011;6086;43.546;26.474;2022-08-04T07:02:38;2.60;;;2.40;;
12050;SDS011;6086;43.546;26.474;2022-08-04T07:05:09;2.80;;;2.50;;
12050;SDS011;6086;43.546;26.474;2022-08-04T07:07:37;2.50;;;2.20;;
12050;SDS011;6086;43.546;26.474;2022-08-04T07:10:06;2.33;;;2.20;;
12050;SDS011;6086;43.546;26.474;2022-08-04T07:12:35;2.77;;;2.57;;
12050;SDS011;6086;43.546;26.474;2022-08-04T07:15:04;2.70;;;2.50;;
12050;SDS011;6086;43.546;26.474;2022-08-04T07:17:33;3.70;;;2.93;;
12050;SDS011;6086;43.546;26.474;2022-08-04T07:20:01;3.20;;;2.73;;
12050;SDS011;6086;43.546;26.474;2022-08-04T07:22:29;2.90;;;2.43;;
12050;SDS011;6086;43.546;26.474;2022-08-04T07:24:57;2.57;;;2.37;;
12050;SDS011;6086;43.546;26.474;2022-08-04T07:27:25;2.27;;;2.17;;
12050;SDS011;6086;43.546;26.474;2022-08-04T07:29:54;2.70;;;2.50;;
12050;SDS011;6086;43.546;26.474;2022-08-04T07:32:21;4.03;;;2.40;;
12050;SDS011;6086;43.546;26.474;2022-08-04T07:34:50;2.37;;;2.17;;
12050;SDS011;6086;43.546;26.474;2022-08-04T07:37:17;2.87;;;2.67;;
12050;SDS011;6086;43.546;26.474;2022-08-04T07:39:45;3.07;;;2.40;;
12050;SDS011;6086;43.546;26.474;2022-08-04T07:42:12;4.20;;;2.70;;
12050;SDS011;6086;43.546;26.474;2022-08-04T07:44:40;2.70;;;2.40;;
12050;SDS011;6086;43.546;26.474;2022-08-04T07:47:11;2.13;;;2.03;;
12050;SDS011;6086;43.546;26.474;2022-08-04T07:49:40;2.67;;;2.47;;
12050;SDS011;6086;43.546;26.474;2022-08-04T07:52:07;3.27;;;2.60;;
12050;SDS011;6086;43.546;26.474;2022-08-04T07:54:35;2.50;;;2.30;;
12050;SDS011;6086;43.546;26.474;2022-08-04T07:57:04;2.40;;;2.20;;
12050;SDS011;6086;43.546;26.474;2022-08-04T07:59:32;4.60;;;2.60;;
12050;SDS011;6086;43.546;26.474;2022-08-04T08:02:01;2.90;;;2.57;;
12050;SDS011;6086;43.546;26.474;2022-08-04T08:04:29;3.07;;;2.77;;
12050;SDS011;6086;43.546;26.474;2022-08-04T08:06:57;2.73;;;2.53;;
12050;SDS011;6086;43.546;26.474;2022-08-04T08:09:24;3.07;;;2.57;;
12050;SDS011;6086;43.546;26.474;2022-08-04T08:11:52;3.00;;;2.70;;
12050;SDS011;6086;43.546;26.474;2022-08-04T08:14:19;2.80;;;2.60;;
12050;SDS011;6086;43.546;26.474;2022-08-04T08:16:46;7.93;;;4.90;;
12050;SDS011;6086;43.546;26.474;2022-08-04T08:19:13;3.00;;;2.70;;
12050;SDS011;6086;43.546;26.474;2022-08-04T08:21:46;4.60;;;2.47;;
12050;SDS011;6086;43.546;26.474;2022-08-04T08:24:14;3.30;;;3.00;;
12050;SDS011;6086;43.546;26.474;2022-08-04T08:26:41;3.10;;;2.80;;
12050;SDS011;6086;43.546;26.474;2022-08-04T08:29:08;4.07;;;2.50;;
12050;SDS011;6086;43.546;26.474;2022-08-04T08:31:36;2.80;;;2.10;;
12050;SDS011;6086;43.546;26.474;2022-08-04T08:34:02;3.07;;;2.23;;
12050;SDS011;6086;43.546;26.474;2022-08-04T08:36:32;2.90;;;2.60;;
12050;SDS011;6086;43.546;26.474;2022-08-04T08:39:06;2.87;;;2.13;;
12050;SDS011;6086;43.546;26.474;2022-08-04T08:41:50;2.50;;;2.30;;
12050;SDS011;6086;43.546;26.474;2022-08-04T08:44:47;2.47;;;2.20;;
12050;SDS011;6086;43.546;26.474;2022-08-04T08:47:37;3.00;;;2.33;;
12050;SDS011;6086;43.546;26.474;2022-08-04T08:50:24;3.10;;;2.20;;
12050;SDS011;6086;43.546;26.474;2022-08-04T08:53:21;2.90;;;2.10;;
12050;SDS011;6086;43.546;26.474;2022-08-04T08:56:05;2.13;;;2.03;;
12050;SDS011;6086;43.546;26.474;2022-08-04T08:58:46;3.00;;;2.70;;
12050;SDS011;6086;43.546;26.474;2022-08-04T09:01:24;2.37;;;2.17;;
12050;SDS011;6086;43.546;26.474;2022-08-04T09:07:25;5.30;;;2.90;;
12050;SDS011;6086;43.546;26.474;2022-08-04T09:10:08;2.20;;;2.10;;
12050;SDS011;6086;43.546;26.474;2022-08-04T09:12:46;5.40;;;2.70;;
12050;SDS011;6086;43.546;26.474;2022-08-04T09:15:21;2.37;;;2.23;;
12050;SDS011;6086;43.546;26.474;2022-08-04T09:17:56;2.73;;;2.53;;
12050;SDS011;6086;43.546;26.474;2022-08-04T09:20:28;2.60;;;2.40;;
12050;SDS011;6086;43.546;26.474;2022-08-04T09:22:59;2.50;;;2.30;;
12050;SDS011;6086;43.546;26.474;2022-08-04T09:25:33;2.23;;;2.13;;
12050;SDS011;6086;43.546;26.474;2022-08-04T09:28:10;2.23;;;2.13;;
12050;SDS011;6086;43.546;26.474;2022-08-04T09:30:47;2.43;;;2.20;;
12050;SDS011;6086;43.546;26.474;2022-08-04T09:33:24;4.00;;;2.40;;
12050;SDS011;6086;43.546;26.474;2022-08-04T09:35:58;3.10;;;2.60;;
12050;SDS011;6086;43.546;26.474;2022-08-04T09:38:32;2.70;;;2.50;;
12050;SDS011;6086;43.546;26.474;2022-08-04T09:41:11;2.77;;;2.57;;
12050;SDS011;6086;43.546;26.474;2022-08-04T09:43:53;4.00;;;2.63;;
12050;SDS011;6086;43.546;26.474;2022-08-04T09:46:32;2.60;;;2.33;;
12050;SDS011;6086;43.546;26.474;2022-08-04T09:49:06;4.07;;;2.63;;
12050;SDS011;6086;43.546;26.474;2022-08-04T09:51:42;2.37;;;2.20;;
12050;SDS011;6086;43.546;26.474;2022-08-04T09:57:12;3.30;;;2.30;;
12050;SDS011;6086;43.546;26.474;2022-08-04T09:59:56;2.70;;;2.50;;
12050;SDS011;6086;43.546;26.474;2022-08-04T10:02:28;2.93;;;2.70;;
12050;SDS011;6086;43.546;26.474;2022-08-04T10:04:59;2.53;;;2.37;;
12050;SDS011;6086;43.546;26.474;2022-08-04T10:07:34;3.27;;;2.30;;
12050;SDS011;6086;43.546;26.474;2022-08-04T10:10:18;4.23;;;2.20;;
12050;SDS011;6086;43.546;26.474;2022-08-04T10:15:50;2.50;;;2.30;;
12050;SDS011;6086;43.546;26.474;2022-08-04T10:18:37;3.30;;;2.60;;
12050;SDS011;6086;43.546;26.474;2022-08-04T10:21:12;2.70;;;2.50;;
12050;SDS011;6086;43.546;26.474;2022-08-04T10:23:48;2.40;;;2.20;;
12050;SDS011;6086;43.546;26.474;2022-08-04T10:26:30;2.43;;;2.23;;
12050;SDS011;6086;43.546;26.474;2022-08-04T10:29:03;2.33;;;2.13;;
12050;SDS011;6086;43.546;26.474;2022-08-04T10:31:34;2.60;;;2.40;;
12050;SDS011;6086;43.546;26.474;2022-08-04T10:34:09;2.43;;;2.23;;
12050;SDS011;6086;43.546;26.474;2022-08-04T10:36:43;2.43;;;2.23;;
12050;SDS011;6086;43.546;26.474;2022-08-04T10:39:17;3.10;;;2.40;;
12050;SDS011;6086;43.546;26.474;2022-08-04T10:41:51;2.53;;;2.33;;
12050;SDS011;6086;43.546;26.474;2022-08-04T10:44:25;2.60;;;2.40;;
12050;SDS011;6086;43.546;26.474;2022-08-04T10:47:03;2.50;;;2.30;;
12050;SDS011;6086;43.546;26.474;2022-08-04T10:49:34;3.20;;;2.27;;
12050;SDS011;6086;43.546;26.474;2022-08-04T10:52:06;3.13;;;2.50;;
12050;SDS011;6086;43.546;26.474;2022-08-04T10:54:38;2.50;;;2.30;;
12050;SDS011;6086;43.546;26.474;2022-08-04T10:57:14;3.23;;;2.20;;
12050;SDS011;6086;43.546;26.474;2022-08-04T10:59:48;2.20;;;2.10;;
12050;SDS011;6086;43.546;26.474;2022-08-04T11:02:27;2.20;;;2.00;;
12050;SDS011;6086;43.546;26.474;2022-08-04T11:05:04;2.60;;;2.43;;
12050;SDS011;6086;43.546;26.474;2022-08-04T11:07:41;2.20;;;2.10;;
12050;SDS011;6086;43.546;26.474;2022-08-04T11:10:11;2.30;;;2.20;;
12050;SDS011;6086;43.546;26.474;2022-08-04T11:12:39;2.40;;;2.30;;
12050;SDS011;6086;43.546;26.474;2022-08-04T11:15:10;2.13;;;2.03;;
12050;SDS011;6086;43.546;26.474;2022-08-04T11:17:53;3.43;;;2.43;;
12050;SDS011;6086;43.546;26.474;2022-08-04T11:20:25;5.50;;;3.00;;
12050;SDS011;6086;43.546;26.474;2022-08-04T11:22:58;3.13;;;2.40;;
12050;SDS011;6086;43.546;26.474;2022-08-04T11:25:31;3.07;;;2.43;;
12050;SDS011;6086;43.546;26.474;2022-08-04T11:28:08;2.50;;;2.30;;
12050;SDS011;6086;43.546;26.474;2022-08-04T11:30:41;2.20;;;2.10;;
12050;SDS011;6086;43.546;26.474;2022-08-04T11:33:20;2.77;;;2.40;;
12050;SDS011;6086;43.546;26.474;2022-08-04T11:35:54;4.20;;;2.17;;
12050;SDS011;6086;43.546;26.474;2022-08-04T11:38:29;2.90;;;2.20;;
12050;SDS011;6086;43.546;26.474;2022-08-04T11:41:03;2.47;;;2.27;;
12050;SDS011;6086;43.546;26.474;2022-08-04T11:43:36;2.57;;;2.07;;
12050;SDS011;6086;43.546;26.474;2022-08-04T11:46:11;4.63;;;2.33;;
12050;SDS011;6086;43.546;26.474;2022-08-04T11:48:47;2.10;;;2.00;;
12050;SDS011;6086;43.546;26.474;2022-08-04T11:51:21;2.03;;;1.93;;
12050;SDS011;6086;43.546;26.474;2022-08-04T11:53:50;2.27;;;2.00;;
12050;SDS011;6086;43.546;26.474;2022-08-04T11:56:17;1.90;;;1.80;;
12050;SDS011;6086;43.546;26.474;2022-08-04T11:58:44;3.67;;;1.97;;
12050;SDS011;6086;43.546;26.474;2022-08-04T12:01:15;2.20;;;2.03;;
12050;SDS011;6086;43.546;26.474;2022-08-04T12:03:54;3.60;;;2.20;;
12050;SDS011;6086;43.546;26.474;2022-08-04T12:06:29;2.20;;;2.10;;
12050;SDS011;6086;43.546;26.474;2022-08-04T12:09:03;3.97;;;2.03;;
12050;SDS011;6086;43.546;26.474;2022-08-04T12:11:42;3.60;;;2.07;;
12050;SDS011;6086;43.546;26.474;2022-08-04T12:14:28;2.80;;;2.20;;
12050;SDS011;6086;43.546;26.474;2022-08-04T12:17:06;2.47;;;2.27;;
12050;SDS011;6086;43.546;26.474;2022-08-04T12:19:40;2.70;;;2.10;;
12050;SDS011;6086;43.546;26.474;2022-08-04T12:22:13;5.60;;;2.13;;
12050;SDS011;6086;43.546;26.474;2022-08-04T12:24:43;2.10;;;2.00;;
12050;SDS011;6086;43.546;26.474;2022-08-04T12:27:15;2.67;;;2.10;;
12050;SDS011;6086;43.546;26.474;2022-08-04T12:29:45;2.37;;;2.20;;
12050;SDS011;6086;43.546;26.474;2022-08-04T12:32:19;2.50;;;2.30;;
12050;SDS011;6086;43.546;26.474;2022-08-04T12:34:57;2.30;;;2.10;;
12050;SDS011;6086;43.546;26.474;2022-08-04T12:37:34;2.20;;;2.10;;
12050;SDS011;6086;43.546;26.474;2022-08-04T12:40:12;5.30;;;1.97;;
12050;SDS011;6086;43.546;26.474;2022-08-04T12:42:43;2.47;;;2.03;;
12050;SDS011;6086;43.546;26.474;2022-08-04T12:45:22;5.17;;;4.20;;
12050;SDS011;6086;43.546;26.474;2022-08-04T12:47:49;1.80;;;1.70;;
12050;SDS011;6086;43.546;26.474;2022-08-04T12:50:20;2.10;;;2.00;;
12050;SDS011;6086;43.546;26.474;2022-08-04T12:52:50;2.00;;;1.90;;
12050;SDS011;6086;43.546;26.474;2022-08-04T12:55:21;2.27;;;2.00;;
12050;SDS011;6086;43.546;26.474;2022-08-04T12:57:50;2.93;;;2.57;;
12050;SDS011;6086;43.546;26.474;2022-08-04T13:00:24;2.20;;;2.00;;
12050;SDS011;6086;43.546;26.474;2022-08-04T13:02:53;2.03;;;1.87;;
12050;SDS011;6086;43.546;26.474;2022-08-04T13:05:31;2.17;;;2.07;;
12050;SDS011;6086;43.546;26.474;2022-08-04T13:08:00;2.50;;;2.27;;
12050;SDS011;6086;43.546;26.474;2022-08-04T13:10:29;2.00;;;1.90;;
12050;SDS011;6086;43.546;26.474;2022-08-04T13:13:02;2.50;;;2.07;;
12050;SDS011;6086;43.546;26.474;2022-08-04T13:15:29;2.27;;;2.00;;
12050;SDS011;6086;43.546;26.474;2022-08-04T13:17:58;4.73;;;2.20;;
12050;SDS011;6086;43.546;26.474;2022-08-04T13:20:28;2.13;;;2.00;;
12050;SDS011;6086;43.546;26.474;2022-08-04T13:22:58;2.27;;;1.93;;
12050;SDS011;6086;43.546;26.474;2022-08-04T13:25:30;2.50;;;2.30;;
12050;SDS011;6086;43.546;26.474;2022-08-04T13:27:57;2.27;;;2.07;;
12050;SDS011;6086;43.546;26.474;2022-08-04T13:30:26;2.00;;;1.90;;
12050;SDS011;6086;43.546;26.474;2022-08-04T13:32:56;2.37;;;2.27;;
12050;SDS011;6086;43.546;26.474;2022-08-04T13:35:26;2.30;;;2.10;;
12050;SDS011;6086;43.546;26.474;2022-08-04T13:37:56;2.17;;;1.93;;
12050;SDS011;6086;43.546;26.474;2022-08-04T13:40:25;2.20;;;2.00;;
12050;SDS011;6086;43.546;26.474;2022-08-04T13:42:52;2.00;;;1.90;;
12050;SDS011;6086;43.546;26.474;2022-08-04T13:45:21;2.30;;;2.10;;
12050;SDS011;6086;43.546;26.474;2022-08-04T13:47:50;2.03;;;1.93;;
12050;SDS011;6086;43.546;26.474;2022-08-04T13:50:23;1.87;;;1.77;;
12050;SDS011;6086;43.546;26.474;2022-08-04T13:52:54;2.53;;;2.40;;
12050;SDS011;6086;43.546;26.474;2022-08-04T13:55:25;1.97;;;1.87;;
12050;SDS011;6086;43.546;26.474;2022-08-04T13:57:55;3.80;;;2.13;;
12050;SDS011;6086;43.546;26.474;2022-08-04T14:00:25;1.50;;;1.50;;
12050;SDS011;6086;43.546;26.474;2022-08-04T14:03:03;2.33;;;2.23;;
12050;SDS011;6086;43.546;26.474;2022-08-04T14:05:32;2.37;;;1.93;;
12050;SDS011;6086;43.546;26.474;2022-08-04T14:08:04;2.13;;;1.97;;
12050;SDS011;6086;43.546;26.474;2022-08-04T14:10:34;2.47;;;2.00;;
12050;SDS011;6086;43.546;26.474;2022-08-04T14:13:02;2.27;;;2.07;;
12050;SDS011;6086;43.546;26.474;2022-08-04T14:15:31;1.93;;;1.83;;
12050;SDS011;6086;43.546;26.474;2022-08-04T14:18:16;2.13;;;2.03;;
12050;SDS011;6086;43.546;26.474;2022-08-04T14:23:40;2.80;;;2.13;;
12050;SDS011;6086;43.546;26.474;2022-08-04T14:26:22;2.00;;;1.90;;
12050;SDS011;6086;43.546;26.474;2022-08-04T14:28:54;2.37;;;2.10;;
12050;SDS011;6086;43.546;26.474;2022-08-04T14:31:31;2.50;;;2.30;;
12050;SDS011;6086;43.546;26.474;2022-08-04T14:33:58;2.13;;;1.90;;
12050;SDS011;6086;43.546;26.474;2022-08-04T14:36:25;1.90;;;1.80;;
12050;SDS011;6086;43.546;26.474;2022-08-04T14:38:54;2.23;;;2.13;;
12050;SDS011;6086;43.546;26.474;2022-08-04T14:41:23;1.80;;;1.70;;
12050;SDS011;6086;43.546;26.474;2022-08-04T14:43:52;2.07;;;1.93;;
12050;SDS011;6086;43.546;26.474;2022-08-04T14:46:20;1.77;;;1.67;;
12050;SDS011;6086;43.546;26.474;2022-08-04T14:49:02;1.93;;;1.83;;
12050;SDS011;6086;43.546;26.474;2022-08-04T14:51:34;3.30;;;2.07;;
12050;SDS011;6086;43.546;26.474;2022-08-04T14:54:05;2.10;;;1.70;;
12050;SDS011;6086;43.546;26.474;2022-08-04T14:56:33;2.37;;;1.90;;
12050;SDS011;6086;43.546;26.474;2022-08-04T14:59:01;2.10;;;1.83;;
12050;SDS011;6086;43.546;26.474;2022-08-04T15:01:31;2.67;;;2.27;;
12050;SDS011;6086;43.546;26.474;2022-08-04T15:03:59;3.37;;;2.10;;
12050;SDS011;6086;43.546;26.474;2022-08-04T15:06:28;2.60;;;2.10;;
12050;SDS011;6086;43.546;26.474;2022-08-04T15:08:56;2.70;;;1.87;;
12050;SDS011;6086;43.546;26.474;2022-08-04T15:11:26;2.20;;;2.10;;
12050;SDS011;6086;43.546;26.474;2022-08-04T15:13:54;1.70;;;1.60;;
12050;SDS011;6086;43.546;26.474;2022-08-04T15:16:23;2.53;;;2.20;;
12050;SDS011;6086;43.546;26.474;2022-08-04T15:18:53;2.47;;;2.23;;
12050;SDS011;6086;43.546;26.474;2022-08-04T15:21:20;2.40;;;2.20;;
12050;SDS011;6086;43.546;26.474;2022-08-04T15:23:50;2.80;;;2.60;;
12050;SDS011;6086;43.546;26.474;2022-08-04T15:26:18;2.37;;;2.17;;
12050;SDS011;6086;43.546;26.474;2022-08-04T15:28:55;2.77;;;2.30;;
12050;SDS011;6086;43.546;26.474;2022-08-04T15:31:26;2.20;;;2.10;;
12050;SDS011;6086;43.546;26.474;2022-08-04T15:33:56;3.17;;;2.00;;
12050;SDS011;6086;43.546;26.474;2022-08-04T15:36:26;2.23;;;2.03;;
12050;SDS011;6086;43.546;26.474;2022-08-04T15:39:02;4.73;;;2.00;;
12050;SDS011;6086;43.546;26.474;2022-08-04T15:41:36;3.07;;;2.37;;
12050;SDS011;6086;43.546;26.474;2022-08-04T15:44:29;2.30;;;2.10;;
12050;SDS011;6086;43.546;26.474;2022-08-04T15:47:15;2.07;;;1.83;;
12050;SDS011;6086;43.546;26.474;2022-08-04T15:49:42;2.27;;;2.03;;
12050;SDS011;6086;43.546;26.474;2022-08-04T15:52:11;2.13;;;1.90;;
12050;SDS011;6086;43.546;26.474;2022-08-04T15:54:42;2.30;;;2.10;;
12050;SDS011;6086;43.546;26.474;2022-08-04T15:57:09;2.10;;;2.00;;
12050;SDS011;6086;43.546;26.474;2022-08-04T15:59:59;2.20;;;2.00;;
12050;SDS011;6086;43.546;26.474;2022-08-04T16:02:29;2.20;;;2.00;;
12050;SDS011;6086;43.546;26.474;2022-08-04T16:07:55;2.50;;;1.80;;
12050;SDS011;6086;43.546;26.474;2022-08-04T16:10:36;2.37;;;2.17;;
12050;SDS011;6086;43.546;26.474;2022-08-04T16:13:05;2.20;;;2.00;;